Time;durP1;ratioP1;P1;durP2;ratioP2;P2;SDS_P1;SDS_P2;PMS_P1;PMS_P2;Temp;Humidity;BMP_temperature;BMP_pressure;BME280_temperature;BME280_humidity;BME280_pressure;Samples;Min_cycle;Max_cycle;Signal;HPM_P1;HPM_P2
2023/10/27 00:01:28;;;;;;;38.72;23.17;;;;;;;;;;5052737;28;20396;-66
2023/10/27 00:03:54;;;;;;;39.35;23.90;;;;;;;;;;5052520;28;20438;-66
2023/10/27 00:06:20;;;;;;;42.38;24.42;;;;;;;;;;5052079;28;20041;-66
2023/10/27 00:08:46;;;;;;;37.85;23.13;;;;;;;;;;5052472;28;20048;-66
2023/10/27 00:11:12;;;;;;;36.83;22.20;;;;;;;;;;5052346;28;20044;-66
2023/10/27 00:13:38;;;;;;;35.83;22.20;;;;;;;;;;5052108;28;20116;-66
2023/10/27 00:16:08;;;;;;;36.42;22.20;;;;;;;;;;5052272;28;20041;-66
2023/10/27 00:18:34;;;;;;;34.78;20.90;;;;;;;;;;5052195;28;20076;-66
2023/10/27 00:21:00;;;;;;;36.33;21.70;;;;;;;;;;5051912;28;20048;-66
2023/10/27 00:23:26;;;;;;;35.60;20.75;;;;;;;;;;5052198;28;20482;-66
2023/10/27 00:25:52;;;;;;;32.38;20.70;;;;;;;;;;5052071;28;20406;-66
2023/10/27 00:28:18;;;;;;;34.25;21.35;;;;;;;;;;5051668;28;20051;-66
2023/10/27 00:30:44;;;;;;;36.47;21.75;;;;;;;;;;5052074;28;20129;-66
2023/10/27 00:33:10;;;;;;;34.70;21.35;;;;;;;;;;5051470;28;20122;-66
2023/10/27 00:35:36;;;;;;;38.10;21.70;;;;;;;;;;5051303;28;20077;-66
2023/10/27 00:38:02;;;;;;;36.95;21.23;;;;;;;;;;5051751;28;20522;-66
2023/10/27 00:40:28;;;;;;;34.63;21.38;;;;;;;;;;5051354;28;20102;-66
2023/10/27 00:42:58;;;;;;;36.97;22.17;;;;;;;;;;5051547;28;20044;-66
2023/10/27 00:45:24;;;;;;;34.97;21.10;;;;;;;;;;5051646;28;20048;-66
2023/10/27 00:47:51;;;;;;;36.25;21.52;;;;;;;;;;5051706;28;20039;-66
2023/10/27 00:50:18;;;;;;;40.97;22.52;;;;;;;;;;5051399;28;20045;-66
2023/10/27 00:52:44;;;;;;;39.25;22.77;;;;;;;;;;5051504;28;20111;-66
2023/10/27 00:55:11;;;;;;;40.90;22.27;;;;;;;;;;5051191;28;20084;-66
2023/10/27 00:57:38;;;;;;;39.50;22.27;;;;;;;;;;5051163;28;20041;-66
2023/10/27 01:00:04;;;;;;;37.45;22.30;;;;;;;;;;5051445;28;20112;-66
2023/10/27 01:02:30;;;;;;;38.72;22.60;;;;;;;;;;5051451;28;20108;-66
2023/10/27 01:04:56;;;;;;;41.22;22.38;;;;;;;;;;5051107;28;20099;-66
2023/10/27 01:07:23;;;;;;;40.20;22.90;;;;;;;;;;5051297;28;20439;-66
2023/10/27 01:09:50;;;;;;;38.72;22.13;;;;;;;;;;5051417;28;20045;-66
2023/10/27 01:12:16;;;;;;;41.00;23.42;;;;;;;;;;5050904;28;20087;-66
2023/10/27 01:14:42;;;;;;;39.20;23.00;;;;;;;;;;5051287;28;20041;-66
2023/10/27 01:17:08;;;;;;;40.22;24.10;;;;;;;;;;5051112;28;20087;-66
2023/10/27 01:19:36;;;;;;;48.03;25.20;;;;;;;;;;5050889;28;20681;-66
2023/10/27 01:22:03;;;;;;;40.85;24.92;;;;;;;;;;5051332;28;20744;-65
2023/10/27 01:24:29;;;;;;;48.08;26.13;;;;;;;;;;5050962;28;20055;-65
2023/10/27 01:26:56;;;;;;;43.28;23.63;;;;;;;;;;5050402;28;20037;-65
2023/10/27 01:29:23;;;;;;;44.28;25.02;;;;;;;;;;5050811;28;20041;-65
2023/10/27 01:31:49;;;;;;;40.00;23.85;;;;;;;;;;5051141;28;20507;-65
2023/10/27 01:34:16;;;;;;;42.10;24.48;;;;;;;;;;5050659;28;20037;-65
2023/10/27 01:36:42;;;;;;;43.53;24.92;;;;;;;;;;5051101;28;20044;-65
2023/10/27 01:39:08;;;;;;;40.55;23.00;;;;;;;;;;5051055;28;20144;-65
2023/10/27 01:41:34;;;;;;;46.65;23.45;;;;;;;;;;5050677;28;20538;-65
2023/10/27 01:44:00;;;;;;;46.08;24.10;;;;;;;;;;5051072;28;20129;-65
2023/10/27 01:46:26;;;;;;;39.95;22.88;;;;;;;;;;5050858;28;20131;-65
2023/10/27 01:48:53;;;;;;;46.30;23.15;;;;;;;;;;5050734;28;20424;-65
2023/10/27 01:51:19;;;;;;;42.65;22.65;;;;;;;;;;5053848;28;20573;-65
2023/10/27 01:53:45;;;;;;;40.53;22.58;;;;;;;;;;5054812;28;20049;-65
2023/10/27 01:56:11;;;;;;;39.45;23.35;;;;;;;;;;5054482;28;20037;-65
2023/10/27 01:58:40;;;;;;;39.10;22.27;;;;;;;;;;5054781;28;20422;-65
2023/10/27 02:01:06;;;;;;;37.35;22.73;;;;;;;;;;5054911;28;20533;-65
2023/10/27 02:03:32;;;;;;;37.50;22.75;;;;;;;;;;5054486;28;20072;-65
2023/10/27 02:05:59;;;;;;;42.00;24.05;;;;;;;;;;5054485;28;20120;-65
2023/10/27 02:08:25;;;;;;;43.13;23.42;;;;;;;;;;5054796;28;20464;-65
2023/10/27 02:10:51;;;;;;;41.15;23.10;;;;;;;;;;5054426;28;20136;-65
2023/10/27 02:13:17;;;;;;;40.70;22.73;;;;;;;;;;5054567;28;20033;-65
2023/10/27 02:15:43;;;;;;;39.60;22.27;;;;;;;;;;5054597;28;20079;-65
2023/10/27 02:18:09;;;;;;;34.35;20.83;;;;;;;;;;5053844;28;20087;-65
2023/10/27 02:20:35;;;;;;;36.65;19.70;;;;;;;;;;5054577;28;20044;-65
2023/10/27 02:23:01;;;;;;;35.85;19.58;;;;;;;;;;5054626;28;20043;-65
2023/10/27 02:25:27;;;;;;;33.90;19.52;;;;;;;;;;5053893;28;20528;-65
2023/10/27 02:27:53;;;;;;;34.40;19.85;;;;;;;;;;5054408;28;20049;-65
2023/10/27 02:30:19;;;;;;;32.72;18.30;;;;;;;;;;5054382;28;20036;-65
2023/10/27 02:32:45;;;;;;;35.80;18.45;;;;;;;;;;5053604;28;20131;-65
2023/10/27 02:35:11;;;;;;;33.22;18.92;;;;;;;;;;5053980;28;20511;-65
2023/10/27 02:37:37;;;;;;;35.40;18.85;;;;;;;;;;5053726;28;20491;-65
2023/10/27 02:40:04;;;;;;;31.73;17.67;;;;;;;;;;5053423;28;20041;-65
2023/10/27 02:42:30;;;;;;;34.50;18.60;;;;;;;;;;5054040;28;20041;-65
2023/10/27 02:44:56;;;;;;;30.42;18.13;;;;;;;;;;5054145;28;20087;-65
2023/10/27 02:47:22;;;;;;;36.97;19.45;;;;;;;;;;5053201;28;20045;-65
2023/10/27 02:49:48;;;;;;;33.25;18.38;;;;;;;;;;5054028;28;20048;-65
2023/10/27 02:52:14;;;;;;;34.75;18.45;;;;;;;;;;5053602;28;20037;-65
2023/10/27 02:54:40;;;;;;;34.97;18.58;;;;;;;;;;5053071;28;20064;-65
2023/10/27 02:57:06;;;;;;;31.17;17.67;;;;;;;;;;5053775;28;20518;-65
2023/10/27 02:59:32;;;;;;;33.13;17.70;;;;;;;;;;5053741;28;20041;-65
2023/10/27 03:01:58;;;;;;;33.35;17.13;;;;;;;;;;5053257;28;20460;-65
2023/10/27 03:04:27;;;;;;;31.92;17.88;;;;;;;;;;5053715;28;20051;-65
2023/10/27 03:06:53;;;;;;;30.92;17.15;;;;;;;;;;5053570;28;20047;-65
2023/10/27 03:09:19;;;;;;;32.85;17.52;;;;;;;;;;5053192;28;20045;-65
2023/10/27 03:11:45;;;;;;;31.88;16.75;;;;;;;;;;5053503;28;20041;-65
2023/10/27 03:14:12;;;;;;;28.40;16.00;;;;;;;;;;5053275;28;20041;-65
2023/10/27 03:16:38;;;;;;;30.52;16.80;;;;;;;;;;5053041;28;20371;-65
2023/10/27 03:19:04;;;;;;;28.95;15.80;;;;;;;;;;5053006;28;20037;-65
2023/10/27 03:21:30;;;;;;;30.38;17.25;;;;;;;;;;5035445;28;20460;-65
2023/10/27 03:23:56;;;;;;;28.83;16.27;;;;;;;;;;5052653;28;20091;-65
2023/10/27 03:26:23;;;;;;;26.63;15.93;;;;;;;;;;5053211;28;20036;-65
2023/10/27 03:28:49;;;;;;;29.15;15.57;;;;;;;;;;5053103;28;20052;-65
2023/10/27 03:31:15;;;;;;;30.65;17.13;;;;;;;;;;5052643;28;20530;-65
2023/10/27 03:33:41;;;;;;;29.98;15.70;;;;;;;;;;5052897;28;20064;-65
2023/10/27 03:36:07;;;;;;;30.55;17.40;;;;;;;;;;5053058;28;20483;-65
2023/10/27 03:38:34;;;;;;;29.98;16.00;;;;;;;;;;5052688;28;20052;-65
2023/10/27 03:40:59;;;;;;;28.75;16.05;;;;;;;;;;5052520;28;20045;-65
2023/10/27 03:43:26;;;;;;;27.75;16.42;;;;;;;;;;5053110;28;20048;-65
2023/10/27 03:45:52;;;;;;;29.52;15.60;;;;;;;;;;5052521;28;20494;-65
2023/10/27 03:48:18;;;;;;;30.13;16.30;;;;;;;;;;5052516;28;20033;-65
2023/10/27 03:50:44;;;;;;;29.20;16.25;;;;;;;;;;5052910;28;20044;-65
2023/10/27 03:53:10;;;;;;;27.17;15.77;;;;;;;;;;5052529;28;20057;-65
2023/10/27 03:55:36;;;;;;;28.02;16.05;;;;;;;;;;5052413;28;20139;-65
2023/10/27 03:58:18;;;;;;;27.52;16.05;;;;;;;;;;5052680;28;20238;-65
2023/10/27 04:00:44;;;;;;;28.47;16.50;;;;;;;;;;5052499;28;20083;-65
2023/10/27 04:03:10;;;;;;;30.30;15.23;;;;;;;;;;5052368;28;20048;-65
2023/10/27 04:05:36;;;;;;;27.65;15.90;;;;;;;;;;5034715;28;20124;-65
2023/10/27 04:08:04;;;;;;;25.77;14.77;;;;;;;;;;5052583;28;20427;-65
2023/10/27 04:10:32;;;;;;;27.80;15.35;;;;;;;;;;5052141;28;20052;-65
2023/10/27 04:12:58;;;;;;;28.27;15.52;;;;;;;;;;5051817;28;20052;-65
2023/10/27 04:15:24;;;;;;;28.10;15.45;;;;;;;;;;5052397;28;20032;-65
2023/10/27 04:17:50;;;;;;;28.23;15.18;;;;;;;;;;5051620;28;20033;-65
2023/10/27 04:20:16;;;;;;;27.02;15.27;;;;;;;;;;5051968;28;20044;-65
2023/10/27 04:22:42;;;;;;;28.42;15.10;;;;;;;;;;5052256;28;20037;-65
2023/10/27 04:25:09;;;;;;;26.75;14.82;;;;;;;;;;5051662;28;20047;-65
2023/10/27 04:27:36;;;;;;;29.67;15.50;;;;;;;;;;5051770;28;20128;-65
2023/10/27 04:30:07;;;;;;;27.90;14.20;;;;;;;;;;5052183;28;20049;-65
2023/10/27 04:32:35;;;;;;;24.73;14.60;;;;;;;;;;5051331;28;20547;-65
2023/10/27 04:35:02;;;;;;;29.83;15.10;;;;;;;;;;5052077;28;20036;-65
2023/10/27 04:37:30;;;;;;;27.00;15.30;;;;;;;;;;5051603;28;20116;-65
2023/10/27 04:39:56;;;;;;;28.00;14.75;;;;;;;;;;5051251;28;20394;-65
2023/10/27 04:42:22;;;;;;;25.15;14.25;;;;;;;;;;5051735;28;20048;-65
2023/10/27 04:44:49;;;;;;;26.08;15.57;;;;;;;;;;5051454;28;20053;-65
2023/10/27 04:47:15;;;;;;;28.75;15.38;;;;;;;;;;5049959;28;20037;-65
2023/10/27 04:49:41;;;;;;;25.95;14.75;;;;;;;;;;5050883;28;20079;-65
2023/10/27 04:52:07;;;;;;;29.45;15.55;;;;;;;;;;5050719;28;20063;-65
2023/10/27 04:54:34;;;;;;;25.17;14.52;;;;;;;;;;5032231;28;20049;-65
2023/10/27 04:57:03;;;;;;;27.63;15.55;;;;;;;;;;5050414;28;20162;-65
2023/10/27 04:59:29;;;;;;;25.77;14.02;;;;;;;;;;5050563;28;20041;-65
2023/10/27 05:01:55;;;;;;;30.77;14.82;;;;;;;;;;5050473;28;20045;-65
2023/10/27 05:04:21;;;;;;;27.85;14.93;;;;;;;;;;5050540;28;20124;-65
2023/10/27 05:06:47;;;;;;;27.50;14.73;;;;;;;;;;5050235;28;20095;-65
2023/10/27 05:09:15;;;;;;;24.88;14.20;;;;;;;;;;5050379;28;20043;-65
2023/10/27 05:11:42;;;;;;;25.38;14.95;;;;;;;;;;5051294;28;20060;-65
2023/10/27 05:14:08;;;;;;;29.48;16.08;;;;;;;;;;5033450;28;20041;-65
2023/10/27 05:16:34;;;;;;;31.05;14.95;;;;;;;;;;5050882;28;20660;-65
2023/10/27 05:19:00;;;;;;;24.67;14.40;;;;;;;;;;5033267;28;20179;-65
2023/10/27 05:21:27;;;;;;;26.75;14.43;;;;;;;;;;5050943;28;20041;-65
2023/10/27 05:23:59;;;;;;;26.23;14.93;;;;;;;;;;5050649;28;20052;-65
2023/10/27 05:26:26;;;;;;;28.52;15.25;;;;;;;;;;5050247;28;20045;-65
2023/10/27 05:28:52;;;;;;;31.90;15.48;;;;;;;;;;5051177;28;20037;-65
2023/10/27 05:31:18;;;;;;;29.50;15.07;;;;;;;;;;5050782;28;20538;-65
2023/10/27 05:33:44;;;;;;;26.40;14.65;;;;;;;;;;5051100;28;20087;-65
2023/10/27 05:36:11;;;;;;;26.73;14.93;;;;;;;;;;5050964;28;20041;-65
2023/10/27 05:38:37;;;;;;;26.35;14.75;;;;;;;;;;5048980;28;20078;-65
2023/10/27 05:41:03;;;;;;;29.40;15.73;;;;;;;;;;5050622;28;20076;-65
2023/10/27 05:43:29;;;;;;;26.42;15.57;;;;;;;;;;5050952;28;20463;-64
2023/10/27 05:45:55;;;;;;;29.70;15.75;;;;;;;;;;5050164;28;20044;-65
2023/10/27 05:48:22;;;;;;;28.48;15.68;;;;;;;;;;5050435;28;20037;-64
2023/10/27 05:50:48;;;;;;;31.20;16.70;;;;;;;;;;5050483;28;20483;-65
2023/10/27 05:53:15;;;;;;;31.38;15.43;;;;;;;;;;5049644;28;20495;-65
2023/10/27 05:55:41;;;;;;;28.17;15.55;;;;;;;;;;5050352;28;20048;-65
2023/10/27 05:58:07;;;;;;;29.50;16.65;;;;;;;;;;5050359;28;20051;-65
2023/10/27 06:00:33;;;;;;;32.13;16.70;;;;;;;;;;5050056;28;20056;-64
2023/10/27 06:02:59;;;;;;;30.30;16.52;;;;;;;;;;5050521;28;20051;-64
2023/10/27 06:05:25;;;;;;;30.60;15.90;;;;;;;;;;5050420;28;20080;-64
2023/10/27 06:07:51;;;;;;;30.27;15.75;;;;;;;;;;5050477;28;20139;-64
2023/10/27 06:10:18;;;;;;;29.20;15.88;;;;;;;;;;5050234;28;20535;-65
2023/10/27 06:12:44;;;;;;;32.30;16.88;;;;;;;;;;5049990;28;20387;-65
2023/10/27 06:15:11;;;;;;;33.17;17.08;;;;;;;;;;5050182;28;20059;-63
2023/10/27 06:17:37;;;;;;;30.95;16.45;;;;;;;;;;5049805;28;20033;-63
2023/10/27 06:20:03;;;;;;;27.92;15.45;;;;;;;;;;5050202;28;20041;-64
2023/10/27 06:22:30;;;;;;;31.30;16.83;;;;;;;;;;5050048;28;20041;-64
2023/10/27 06:24:56;;;;;;;30.15;16.42;;;;;;;;;;5038010;28;20041;-63
2023/10/27 06:27:22;;;;;;;28.17;16.25;;;;;;;;;;5049853;28;20049;-63
2023/10/27 06:29:48;;;;;;;30.70;16.70;;;;;;;;;;5049457;28;20124;-63
2023/10/27 06:32:14;;;;;;;29.75;16.42;;;;;;;;;;5049462;28;20426;-64
2023/10/27 06:34:40;;;;;;;30.40;16.42;;;;;;;;;;5049648;28;20068;-64
2023/10/27 06:37:07;;;;;;;31.13;16.63;;;;;;;;;;5051741;28;20072;-62
2023/10/27 06:39:34;;;;;;;32.83;18.05;;;;;;;;;;5053600;28;20037;-63
2023/10/27 06:42:00;;;;;;;32.75;16.63;;;;;;;;;;5053482;28;20665;-65
2023/10/27 06:44:27;;;;;;;30.02;15.25;;;;;;;;;;5052999;28;20278;-62
2023/10/27 06:46:53;;;;;;;30.80;16.75;;;;;;;;;;5053352;28;20041;-61
2023/10/27 06:49:20;;;;;;;31.27;16.10;;;;;;;;;;5052869;28;20129;-63
2023/10/27 06:51:47;;;;;;;31.85;16.10;;;;;;;;;;5053172;28;20080;-62
2023/10/27 06:54:14;;;;;;;32.22;16.83;;;;;;;;;;5052574;28;20095;-63
2023/10/27 06:56:40;;;;;;;33.88;16.20;;;;;;;;;;5052798;28;20044;-64
2023/10/27 06:59:06;;;;;;;29.98;15.80;;;;;;;;;;5052583;28;20041;-65
2023/10/27 07:01:32;;;;;;;31.88;16.73;;;;;;;;;;5053200;28;20076;-64
2023/10/27 07:03:58;;;;;;;29.23;16.35;;;;;;;;;;5052754;28;20041;-65
2023/10/27 07:06:25;;;;;;;30.27;16.40;;;;;;;;;;5052476;28;20040;-65
2023/10/27 07:08:51;;;;;;;27.95;14.38;;;;;;;;;;5052681;28;20044;-64
2023/10/27 07:11:17;;;;;;;28.08;15.93;;;;;;;;;;5046121;28;20484;-65
2023/10/27 07:13:43;;;;;;;29.75;16.75;;;;;;;;;;5048178;28;20041;-64
2023/10/27 07:16:09;;;;;;;28.08;14.98;;;;;;;;;;5027555;28;20455;-65
2023/10/27 07:18:35;;;;;;;31.05;16.20;;;;;;;;;;5052112;28;20468;-64
2023/10/27 07:21:05;;;;;;;29.33;16.33;;;;;;;;;;5052116;28;20591;-64
2023/10/27 07:23:31;;;;;;;28.30;16.63;;;;;;;;;;5054250;28;20041;-64
2023/10/27 07:25:57;;;;;;;30.83;16.30;;;;;;;;;;5053685;28;20099;-64
2023/10/27 07:28:23;;;;;;;31.02;16.52;;;;;;;;;;5019312;28;20045;-65
2023/10/27 07:30:49;;;;;;;30.23;16.55;;;;;;;;;;5033787;28;20040;-65
2023/10/27 07:33:15;;;;;;;28.42;15.90;;;;;;;;;;5052020;28;20087;-64
2023/10/27 07:35:42;;;;;;;28.13;16.00;;;;;;;;;;5051834;28;20523;-64
2023/10/27 07:38:08;;;;;;;30.42;16.40;;;;;;;;;;5050048;28;20048;-64
2023/10/27 07:40:35;;;;;;;30.38;15.98;;;;;;;;;;5034017;28;20487;-63
2023/10/27 07:43:01;;;;;;;27.40;15.77;;;;;;;;;;5051744;28;20353;-63
2023/10/27 07:45:27;;;;;;;29.80;15.43;;;;;;;;;;5051117;28;20161;-63
2023/10/27 07:47:53;;;;;;;27.90;16.25;;;;;;;;;;5033215;28;20057;-63
2023/10/27 07:50:20;;;;;;;27.05;15.98;;;;;;;;;;5051367;28;20128;-64
2023/10/27 07:52:46;;;;;;;29.13;16.02;;;;;;;;;;5047021;28;20155;-63
2023/10/27 07:55:12;;;;;;;27.92;15.93;;;;;;;;;;5047208;28;20037;-64
2023/10/27 07:57:38;;;;;;;24.98;15.45;;;;;;;;;;5046059;28;20036;-64
2023/10/27 08:00:09;;;;;;;28.20;15.15;;;;;;;;;;5051803;28;20388;-64
2023/10/27 08:02:35;;;;;;;28.77;14.95;;;;;;;;;;5043461;28;20115;-64
2023/10/27 08:05:01;;;;;;;29.42;14.25;;;;;;;;;;5037652;28;20053;-64
2023/10/27 08:07:27;;;;;;;27.08;14.50;;;;;;;;;;5051364;28;20072;-64
2023/10/27 08:09:53;;;;;;;28.48;15.32;;;;;;;;;;5033356;28;20106;-63
2023/10/27 08:12:20;;;;;;;26.52;14.52;;;;;;;;;;5049163;28;20040;-64
2023/10/27 08:14:46;;;;;;;28.40;14.55;;;;;;;;;;5037153;28;20053;-64
2023/10/27 08:17:12;;;;;;;30.08;15.57;;;;;;;;;;5036909;28;20450;-64
2023/10/27 08:19:39;;;;;;;29.42;14.88;;;;;;;;;;5051021;28;20041;-64
2023/10/27 08:22:05;;;;;;;28.80;15.35;;;;;;;;;;5050045;28;20072;-64
2023/10/27 08:24:32;;;;;;;32.15;15.07;;;;;;;;;;5044423;28;20076;-64
2023/10/27 08:26:58;;;;;;;27.17;14.75;;;;;;;;;;5038621;28;20116;-65
2023/10/27 08:29:24;;;;;;;28.20;14.80;;;;;;;;;;5063165;28;20518;-65
2023/10/27 08:31:50;;;;;;;28.63;15.65;;;;;;;;;;5027720;28;20111;-65
2023/10/27 08:34:16;;;;;;;29.25;15.85;;;;;;;;;;5056882;28;20045;-64
2023/10/27 08:36:42;;;;;;;28.40;15.43;;;;;;;;;;5050570;28;20040;-64
2023/10/27 08:39:08;;;;;;;27.85;15.07;;;;;;;;;;5045851;28;20087;-65
2023/10/27 08:41:36;;;;;;;29.30;14.73;;;;;;;;;;5056846;28;20032;-65
2023/10/27 08:44:03;;;;;;;29.38;15.02;;;;;;;;;;5050279;28;20561;-65
2023/10/27 08:46:29;;;;;;;29.27;15.90;;;;;;;;;;5056598;28;20041;-65
2023/10/27 08:48:55;;;;;;;31.73;15.93;;;;;;;;;;5050152;28;20040;-65
2023/10/27 08:51:21;;;;;;;28.73;15.40;;;;;;;;;;5037606;28;20045;-64
2023/10/27 08:53:48;;;;;;;29.70;14.90;;;;;;;;;;5037992;28;20466;-64
2023/10/27 08:56:14;;;;;;;27.30;14.57;;;;;;;;;;5050251;28;20546;-64
2023/10/27 08:58:40;;;;;;;30.35;16.40;;;;;;;;;;5043315;28;20029;-65
2023/10/27 09:01:07;;;;;;;27.60;15.45;;;;;;;;;;5050623;28;20094;-64
2023/10/27 09:03:33;;;;;;;29.98;14.63;;;;;;;;;;5044294;28;20044;-64
2023/10/27 09:05:59;;;;;;;27.35;15.38;;;;;;;;;;5051843;28;20592;-64
2023/10/27 09:08:25;;;;;;;29.45;15.80;;;;;;;;;;5066033;28;20041;-64
2023/10/27 09:10:51;;;;;;;28.58;14.65;;;;;;;;;;5052566;28;20076;-65
2023/10/27 09:13:21;;;;;;;27.48;14.38;;;;;;;;;;5049783;28;20053;-65
2023/10/27 09:15:49;;;;;;;25.73;14.57;;;;;;;;;;5050143;28;20056;-65
2023/10/27 09:18:15;;;;;;;26.63;14.80;;;;;;;;;;5046172;28;20083;-65
2023/10/27 09:20:51;;;;;;;27.48;14.77;;;;;;;;;;5050217;28;20061;-65
2023/10/27 09:23:18;;;;;;;27.40;15.10;;;;;;;;;;5018298;28;20049;-65
2023/10/27 09:25:44;;;;;;;27.55;14.50;;;;;;;;;;5038068;28;20044;-64
2023/10/27 09:28:11;;;;;;;25.77;14.35;;;;;;;;;;5046576;28;20041;-65
2023/10/27 09:30:44;;;;;;;27.73;14.50;;;;;;;;;;5050396;28;20056;-65
2023/10/27 09:33:23;;;;;;;24.88;13.93;;;;;;;;;;5033097;28;20048;-64
2023/10/27 09:35:50;;;;;;;29.63;14.30;;;;;;;;;;5049366;28;20088;-63
2023/10/27 09:38:17;;;;;;;28.08;14.90;;;;;;;;;;5047762;28;20489;-64
2023/10/27 09:40:43;;;;;;;25.45;14.20;;;;;;;;;;5046802;28;20538;-65
2023/10/27 09:43:19;;;;;;;36.17;19.90;;;;;;;;;;5050337;28;20434;-65
2023/10/27 09:45:55;;;;;;;26.70;14.90;;;;;;;;;;5049637;28;20070;-64
2023/10/27 09:48:26;;;;;;;30.77;15.55;;;;;;;;;;5029960;28;20400;-66
2023/10/27 09:50:59;;;;;;;26.05;14.07;;;;;;;;;;5048217;28;20047;-64
2023/10/27 09:53:27;;;;;;;26.88;14.48;;;;;;;;;;5038627;28;20045;-64
2023/10/27 09:55:54;;;;;;;27.10;14.45;;;;;;;;;;5047928;28;20493;-64
2023/10/27 09:58:21;;;;;;;26.45;14.77;;;;;;;;;;5049267;28;20040;-65
2023/10/27 10:00:48;;;;;;;27.15;14.80;;;;;;;;;;5049800;28;20041;-65
2023/10/27 10:03:15;;;;;;;30.50;14.45;;;;;;;;;;5049738;28;20095;-64
2023/10/27 10:06:00;;;;;;;28.67;14.75;;;;;;;;;;5044908;28;20395;-64
2023/10/27 10:08:27;;;;;;;24.83;14.10;;;;;;;;;;5030830;28;20057;-64
2023/10/27 10:11:10;;;;;;;24.98;14.38;;;;;;;;;;5048058;28;20450;-64
2023/10/27 10:13:36;;;;;;;28.08;14.30;;;;;;;;;;5053601;28;20419;-65
2023/10/27 10:16:03;;;;;;;28.17;14.80;;;;;;;;;;5053227;28;20068;-64
2023/10/27 10:18:38;;;;;;;25.58;14.73;;;;;;;;;;5052559;28;20051;-66
2023/10/27 10:21:06;;;;;;;24.35;13.98;;;;;;;;;;5053494;28;20053;-69
2023/10/27 10:23:39;;;;;;;28.20;15.07;;;;;;;;;;5035085;28;20052;-64
2023/10/27 10:26:05;;;;;;;26.08;14.02;;;;;;;;;;5052814;28;20045;-64
2023/10/27 10:28:36;;;;;;;24.13;14.10;;;;;;;;;;5053292;28;20045;-64
2023/10/27 10:31:13;;;;;;;30.30;16.02;;;;;;;;;;5053135;28;20051;-64
2023/10/27 10:33:40;;;;;;;26.90;14.35;;;;;;;;;;5053068;28;20037;-63
2023/10/27 10:36:18;;;;;;;26.00;14.43;;;;;;;;;;5052776;28;20406;-63
2023/10/27 10:38:56;;;;;;;26.92;14.70;;;;;;;;;;5048692;28;20812;-64
2023/10/27 10:41:41;;;;;;;27.75;15.27;;;;;;;;;;5049078;28;20044;-63
2023/10/27 10:44:16;;;;;;;27.60;14.45;;;;;;;;;;5033366;28;20045;-64
2023/10/27 10:46:44;;;;;;;26.65;15.15;;;;;;;;;;5046326;28;20079;-64
2023/10/27 10:49:22;;;;;;;27.25;14.20;;;;;;;;;;5052602;28;20048;-64
2023/10/27 10:51:55;;;;;;;27.10;15.20;;;;;;;;;;5052969;28;20051;-64
2023/10/27 10:54:25;;;;;;;24.95;15.02;;;;;;;;;;5051236;28;20136;-64
2023/10/27 10:56:58;;;;;;;29.50;15.75;;;;;;;;;;5033008;28;20527;-64
2023/10/27 10:59:24;;;;;;;27.20;15.52;;;;;;;;;;5051815;28;20090;-63
2023/10/27 11:01:57;;;;;;;26.23;14.63;;;;;;;;;;5052913;28;20394;-63
2023/10/27 11:04:31;;;;;;;29.27;15.63;;;;;;;;;;5052683;28;20494;-63
2023/10/27 11:07:04;;;;;;;26.30;15.15;;;;;;;;;;5052409;28;20041;-63
2023/10/27 11:09:31;;;;;;;28.88;15.57;;;;;;;;;;5051985;28;20033;-63
2023/10/27 11:11:57;;;;;;;28.92;15.40;;;;;;;;;;5049248;28;20099;-64
2023/10/27 11:14:23;;;;;;;30.70;16.05;;;;;;;;;;5051121;28;20039;-64
2023/10/27 11:17:00;;;;;;;30.15;15.65;;;;;;;;;;5051984;28;20083;-63
2023/10/27 11:19:26;;;;;;;29.13;16.50;;;;;;;;;;5027216;28;20033;-63
2023/10/27 11:21:53;;;;;;;30.40;17.17;;;;;;;;;;5052350;28;20043;-63
2023/10/27 11:24:19;;;;;;;28.20;15.98;;;;;;;;;;5064651;28;20044;-64
2023/10/27 11:26:45;;;;;;;30.70;16.80;;;;;;;;;;5050831;28;20035;-64
2023/10/27 11:29:12;;;;;;;27.77;15.82;;;;;;;;;;5052468;28;20040;-64
2023/10/27 11:31:42;;;;;;;29.75;16.48;;;;;;;;;;5027565;28;20038;-64
2023/10/27 11:34:08;;;;;;;33.55;17.02;;;;;;;;;;5048646;28;20036;-63
2023/10/27 11:36:39;;;;;;;30.00;16.95;;;;;;;;;;5052468;28;20037;-63
2023/10/27 11:39:22;;;;;;;30.33;16.33;;;;;;;;;;5033936;28;20041;-63
2023/10/27 11:41:52;;;;;;;29.67;16.98;;;;;;;;;;5051237;28;20087;-63
2023/10/27 11:44:18;;;;;;;33.13;16.55;;;;;;;;;;5051435;28;20124;-63
2023/10/27 11:46:45;;;;;;;32.25;17.60;;;;;;;;;;5051262;28;20041;-63
2023/10/27 11:49:11;;;;;;;27.67;16.13;;;;;;;;;;5051590;28;20059;-65
2023/10/27 11:51:37;;;;;;;31.60;17.38;;;;;;;;;;5051810;28;20477;-65
2023/10/27 11:54:03;;;;;;;31.38;17.45;;;;;;;;;;5051523;28;20110;-65
2023/10/27 11:56:29;;;;;;;26.00;15.55;;;;;;;;;;5051518;28;20033;-64
2023/10/27 11:58:55;;;;;;;29.67;16.85;;;;;;;;;;5051531;28;20182;-65
2023/10/27 12:01:22;;;;;;;28.38;16.15;;;;;;;;;;5051296;28;20162;-65
2023/10/27 12:03:48;;;;;;;31.08;17.25;;;;;;;;;;5049404;28;20063;-64
2023/10/27 12:06:14;;;;;;;31.42;17.08;;;;;;;;;;5048338;28;20045;-65
2023/10/27 12:08:40;;;;;;;32.13;17.35;;;;;;;;;;5051637;28;20044;-64
2023/10/27 12:11:06;;;;;;;27.23;16.33;;;;;;;;;;5050995;28;20045;-64
2023/10/27 12:13:32;;;;;;;28.33;16.33;;;;;;;;;;5051266;28;20045;-64
2023/10/27 12:15:58;;;;;;;26.73;15.88;;;;;;;;;;5051210;28;20449;-64
2023/10/27 12:18:24;;;;;;;30.52;16.10;;;;;;;;;;5050485;28;20383;-65
2023/10/27 12:20:50;;;;;;;31.85;18.25;;;;;;;;;;5051119;28;20037;-64
2023/10/27 12:23:18;;;;;;;29.58;17.10;;;;;;;;;;5051181;28;20530;-64
2023/10/27 12:25:45;;;;;;;30.17;16.95;;;;;;;;;;5050970;28;20056;-64
2023/10/27 12:28:12;;;;;;;31.95;16.90;;;;;;;;;;5051100;28;20041;-64
2023/10/27 12:30:38;;;;;;;32.25;16.85;;;;;;;;;;5050834;28;20467;-64
2023/10/27 12:33:04;;;;;;;30.20;16.88;;;;;;;;;;5050770;28;20040;-65
2023/10/27 12:35:31;;;;;;;29.30;16.95;;;;;;;;;;5050398;28;20037;-64
2023/10/27 12:37:57;;;;;;;31.75;17.75;;;;;;;;;;5050914;28;20049;-63
2023/10/27 12:40:24;;;;;;;30.33;17.67;;;;;;;;;;5050277;28;20098;-64
2023/10/27 12:42:50;;;;;;;28.90;17.05;;;;;;;;;;5033004;28;20053;-64
2023/10/27 12:45:17;;;;;;;42.78;23.33;;;;;;;;;;5051076;28;20055;-64
2023/10/27 12:47:44;;;;;;;32.15;16.38;;;;;;;;;;5049953;28;20116;-64
2023/10/27 12:50:10;;;;;;;37.70;21.95;;;;;;;;;;5050438;28;20107;-64
2023/10/27 12:52:37;;;;;;;29.20;16.77;;;;;;;;;;5046915;28;20044;-63
2023/10/27 12:55:05;;;;;;;29.58;16.42;;;;;;;;;;5049667;28;20044;-64
2023/10/27 12:57:32;;;;;;;31.23;16.90;;;;;;;;;;5050735;28;20520;-62
2023/10/27 12:59:59;;;;;;;26.92;15.43;;;;;;;;;;5050300;28;20048;-62
2023/10/27 13:02:26;;;;;;;26.67;15.77;;;;;;;;;;5050133;28;20411;-63
2023/10/27 13:04:53;;;;;;;27.27;15.52;;;;;;;;;;5032694;28;20049;-64
2023/10/27 13:07:20;;;;;;;26.85;15.68;;;;;;;;;;5050305;28;20407;-64
2023/10/27 13:09:46;;;;;;;28.08;15.80;;;;;;;;;;5049919;28;20080;-64
2023/10/27 13:12:12;;;;;;;29.02;15.95;;;;;;;;;;5050238;28;20033;-64
2023/10/27 13:14:41;;;;;;;26.23;15.52;;;;;;;;;;5050290;28;20041;-64
2023/10/27 13:17:09;;;;;;;29.73;16.48;;;;;;;;;;5049989;28;20594;-64
2023/10/27 13:19:35;;;;;;;27.92;16.20;;;;;;;;;;5049886;28;20048;-62
2023/10/27 13:22:01;;;;;;;24.05;15.38;;;;;;;;;;5054215;28;20052;-64
2023/10/27 13:24:28;;;;;;;30.48;16.55;;;;;;;;;;5050139;28;20072;-64
2023/10/27 13:26:55;;;;;;;28.48;16.42;;;;;;;;;;5049921;28;20049;-65
2023/10/27 13:29:21;;;;;;;27.65;16.13;;;;;;;;;;5050443;28;20040;-64
2023/10/27 13:31:47;;;;;;;25.80;15.80;;;;;;;;;;5050010;28;20048;-64
2023/10/27 13:34:14;;;;;;;29.48;16.60;;;;;;;;;;5050722;28;20235;-64
2023/10/27 13:36:40;;;;;;;27.02;16.25;;;;;;;;;;5047556;28;20040;-63
2023/10/27 13:39:07;;;;;;;24.20;14.40;;;;;;;;;;5048504;28;20213;-63
2023/10/27 13:41:34;;;;;;;26.83;14.43;;;;;;;;;;5050540;28;20124;-63
2023/10/27 13:44:07;;;;;;;25.75;14.32;;;;;;;;;;5048794;28;20067;-63
2023/10/27 13:46:35;;;;;;;22.60;13.43;;;;;;;;;;5036060;28;20037;-63
2023/10/27 13:49:06;;;;;;;22.88;13.70;;;;;;;;;;5054799;28;20049;-64
2023/10/27 13:51:32;;;;;;;24.25;14.40;;;;;;;;;;5054724;28;20051;-63
2023/10/27 13:53:58;;;;;;;24.17;13.88;;;;;;;;;;5053998;28;20064;-63
2023/10/27 13:56:24;;;;;;;22.92;13.00;;;;;;;;;;5053975;28;20114;-63
2023/10/27 13:58:51;;;;;;;22.10;13.38;;;;;;;;;;5054530;28;20037;-63
2023/10/27 14:01:18;;;;;;;20.73;12.30;;;;;;;;;;5054381;28;20041;-64
2023/10/27 14:03:44;;;;;;;22.83;13.27;;;;;;;;;;5053986;28;20051;-63
2023/10/27 14:06:13;;;;;;;21.25;12.85;;;;;;;;;;5054425;28;20045;-63
2023/10/27 14:08:41;;;;;;;22.63;12.70;;;;;;;;;;5053644;28;20497;-63
2023/10/27 14:11:07;;;;;;;22.25;13.48;;;;;;;;;;5053379;28;20083;-63
2023/10/27 14:13:33;;;;;;;21.27;13.27;;;;;;;;;;5036681;28;20049;-63
2023/10/27 14:16:00;;;;;;;20.85;12.15;;;;;;;;;;5053435;28;20037;-63